»·PEaware :: N676SV KLGU-KLAS

N676SV :: KLGU-KLAS

FLIGHT INFORMATION

Flight Status: Arrived
Operator: Privately registered:
United States
More flights under this callsign
Pilot: Drew L. (13237)
Aircraft: CESSNA 550 CITATION 2/S2/BRAVO
(C550)
More flights by this aircraft type
Origin: KLGU Logan-Cache
United States
Destination: KLAS McCarran Intl
United States
More flights between these airports :: More routes between these airports
Route: + LHO FFU J9 BERYL KSINO SITEE4
File this flight plan on PilotEdge
Remarks:
Altitude:
(Current/Filed)
36,000ft
Speed:
(Current/Filed)
220kts
Departed: 03-Aug-20 05:22 PM
Arrived: 03-Aug-20 06:44 PM
Distance/Time
Traveled:
376nm/1:22
Distance/Time
To Go:
Arrived

Flight Plot

Page will automatically refresh every two minutes.

Flight plan parsing failed; only flown route is shown


Map Options




Map Legend


Flown Route
Filed Route
Departure Airport
Arrival Airport
Navaid (VOR, NDB)
Fix

Horizontal Profiles

Position Reports

Time Latitude Longitude Heading Altitude Ground
Speed
03-Aug-20 16:32 41.782654 -111.852862 65 4451ft 0kts
03-Aug-20 16:33 41.782654 -111.852862 65 4451ft 0kts
03-Aug-20 16:34 41.782654 -111.852862 65 4451ft 0kts
03-Aug-20 16:35 41.782654 -111.852862 65 4451ft 0kts
03-Aug-20 16:36 41.782654 -111.852862 65 4451ft 0kts
03-Aug-20 16:37 41.782654 -111.852862 65 4451ft 0kts
03-Aug-20 16:38 41.782654 -111.852862 65 4451ft 0kts
03-Aug-20 16:39 41.782654 -111.852862 65 4451ft 0kts
03-Aug-20 16:40 41.782654 -111.852862 65 4451ft 0kts
03-Aug-20 16:41 41.782654 -111.852862 65 4451ft 0kts
03-Aug-20 16:42 41.782654 -111.852862 65 4451ft 0kts
03-Aug-20 16:43 41.782654 -111.852862 65 4451ft 0kts
03-Aug-20 16:44 41.782654 -111.852862 65 4451ft 0kts
03-Aug-20 16:45 41.782654 -111.852862 65 4451ft 0kts
03-Aug-20 16:46 41.782654 -111.852862 65 4451ft 0kts
03-Aug-20 16:47 41.782654 -111.852862 65 4451ft 0kts
03-Aug-20 16:48 41.782654 -111.852862 65 4451ft 0kts
03-Aug-20 16:49 41.782654 -111.852862 65 4451ft 0kts
03-Aug-20 16:50 41.782654 -111.852862 65 4451ft 0kts
03-Aug-20 16:51 41.782654 -111.852862 65 4451ft 0kts
03-Aug-20 16:52 41.782654 -111.852862 65 4451ft 0kts
03-Aug-20 16:53 41.782654 -111.852862 65 4451ft 0kts
03-Aug-20 16:54 41.782654 -111.852862 65 4451ft 0kts
03-Aug-20 16:55 41.782654 -111.852862 65 4451ft 0kts
03-Aug-20 16:56 41.782654 -111.852862 65 4451ft 0kts
03-Aug-20 16:57 41.782654 -111.852862 65 4451ft 0kts
03-Aug-20 16:58 41.782654 -111.852862 65 4451ft 0kts
03-Aug-20 16:59 41.782654 -111.852862 65 4451ft 0kts
03-Aug-20 17:00 41.782654 -111.852862 65 4451ft 0kts
03-Aug-20 17:01 41.782654 -111.852862 65 4451ft 0kts
03-Aug-20 17:02 41.782654 -111.852862 65 4451ft 0kts
03-Aug-20 17:03 41.782654 -111.852862 65 4451ft 0kts
03-Aug-20 17:04 41.782654 -111.852862 65 4451ft 0kts
03-Aug-20 17:05 41.782654 -111.852862 65 4451ft 0kts
03-Aug-20 17:06 41.782654 -111.852862 65 4451ft 0kts
03-Aug-20 17:07 41.782654 -111.852862 65 4451ft 0kts
03-Aug-20 17:08 41.782654 -111.852862 65 4451ft 0kts
03-Aug-20 17:09 41.782654 -111.852862 65 4451ft 0kts
03-Aug-20 17:10 41.782654 -111.852862 65 4451ft 0kts
03-Aug-20 17:11 41.782654 -111.852862 65 4451ft 0kts
03-Aug-20 17:12 41.782654 -111.852862 65 4451ft 0kts
03-Aug-20 17:13 41.782654 -111.852862 65 4451ft 0kts
03-Aug-20 17:14 41.782654 -111.852862 65 4451ft 0kts
03-Aug-20 17:15 41.782654 -111.852862 65 4451ft 0kts
03-Aug-20 17:16 41.782654 -111.852862 65 4451ft 0kts
03-Aug-20 17:17 41.782654 -111.852862 65 4451ft 0kts
03-Aug-20 17:18 41.782654 -111.852862 65 4451ft 0kts
03-Aug-20 17:19 41.782674 -111.852687 101 4452ft 6kts
03-Aug-20 17:20 41.781620 -111.849190 3 4454ft 10kts
03-Aug-20 17:21 41.810989 -111.847090 2 5901ft 139kts
03-Aug-20 17:22 41.829411 -111.880612 259 8681ft 163kts
03-Aug-20 17:23 41.819632 -111.938043 260 11593ft 164kts
03-Aug-20 17:24 41.799025 -111.993562 241 14288ft 172kts
03-Aug-20 17:25 41.750523 -112.007763 183 16731ft 195kts
03-Aug-20 17:26 41.695285 -112.005191 184 19030ft 201kts
03-Aug-20 17:27 41.638842 -112.002570 184 21160ft 206kts
03-Aug-20 17:28 41.580516 -111.999871 185 23162ft 211kts
03-Aug-20 17:29 41.520927 -111.997110 186 25038ft 214kts
03-Aug-20 17:30 41.460687 -111.994336 186 26752ft 219kts
03-Aug-20 17:31 41.399241 -111.991495 186 28363ft 222kts
03-Aug-20 17:32 41.336760 -111.988620 187 29866ft 225kts
03-Aug-20 17:33 41.273516 -111.985709 187 31255ft 227kts
03-Aug-20 17:34 41.209889 -111.982786 187 32546ft 230kts
03-Aug-20 17:35 41.145598 -111.979853 187 33751ft 232kts
03-Aug-20 17:36 41.080612 -111.976904 187 34824ft 236kts
03-Aug-20 17:37 41.014093 -111.973872 187 35785ft 242kts
03-Aug-20 17:38 40.946698 -111.986143 205 36105ft 260kts
03-Aug-20 17:39 40.871952 -112.016974 204 36078ft 300kts
03-Aug-20 17:40 40.788133 -112.051417 203 36049ft 330kts
03-Aug-20 17:41 40.697864 -112.088436 203 36046ft 350kts
03-Aug-20 17:42 40.602978 -112.127256 203 36048ft 362kts
03-Aug-20 17:43 40.506065 -112.166765 203 36051ft 361kts
03-Aug-20 17:44 40.410659 -112.205583 203 36052ft 353kts
03-Aug-20 17:45 40.316676 -112.243718 203 36052ft 348kts
03-Aug-20 17:46 40.224043 -112.281196 203 36052ft 345kts
03-Aug-20 17:48 40.132102 -112.318286 203 36051ft 342kts
03-Aug-20 17:49 40.040865 -112.354988 203 36055ft 341kts
03-Aug-20 17:50 39.950544 -112.391220 203 36058ft 340kts
03-Aug-20 17:51 39.860330 -112.427307 203 36054ft 339kts
03-Aug-20 17:52 39.770367 -112.463194 203 36051ft 339kts
03-Aug-20 17:53 39.680340 -112.499010 203 36050ft 339kts
03-Aug-20 17:54 39.590462 -112.534669 203 36050ft 338kts
03-Aug-20 17:55 39.500319 -112.570336 203 36050ft 338kts
03-Aug-20 17:56 39.410555 -112.605757 203 36049ft 338kts
03-Aug-20 17:57 39.320869 -112.641053 203 36049ft 338kts
03-Aug-20 17:58 39.230952 -112.676344 202 36057ft 339kts
03-Aug-20 17:59 39.140590 -112.711716 202 36057ft 340kts
03-Aug-20 18:00 39.050213 -112.746995 202 36056ft 340kts
03-Aug-20 18:01 38.959767 -112.782269 202 36069ft 341kts
03-Aug-20 18:02 38.868622 -112.817662 201 36092ft 342kts
03-Aug-20 18:03 38.777287 -112.852959 201 36092ft 344kts
03-Aug-20 18:04 38.685792 -112.888301 201 36092ft 345kts
03-Aug-20 18:05 38.594055 -112.923639 201 36092ft 345kts
03-Aug-20 18:06 38.502403 -112.958838 201 36091ft 345kts
03-Aug-20 18:07 38.410661 -112.993992 201 36091ft 345kts
03-Aug-20 18:07 38.337834 -113.032387 215 36091ft 337kts
03-Aug-20 18:09 38.245910 -113.106375 217 36090ft 335kts
03-Aug-20 18:10 38.167194 -113.170224 217 36100ft 335kts
03-Aug-20 18:10 38.101888 -113.223083 217 36138ft 334kts
03-Aug-20 18:11 38.023763 -113.286160 217 36179ft 333kts
03-Aug-20 18:12 37.945749 -113.348986 217 36179ft 333kts
03-Aug-20 18:13 37.863693 -113.404707 209 36180ft 337kts
03-Aug-20 18:14 37.777309 -113.451616 208 36179ft 338kts
03-Aug-20 18:15 37.690557 -113.498058 208 36179ft 338kts
03-Aug-20 18:16 37.603703 -113.544434 208 36164ft 339kts
03-Aug-20 18:17 37.516468 -113.590898 208 36054ft 341kts
03-Aug-20 18:18 37.428788 -113.637469 208 35970ft 342kts
03-Aug-20 18:19 37.340648 -113.684156 207 34799ft 341kts
03-Aug-20 18:20 37.253648 -113.730152 207 33299ft 335kts
03-Aug-20 18:21 37.168220 -113.775212 207 31802ft 331kts
03-Aug-20 18:22 37.083501 -113.819840 206 30299ft 328kts
03-Aug-20 18:23 36.999517 -113.863954 205 28796ft 328kts
03-Aug-20 18:24 36.915221 -113.907988 204 27289ft 329kts
03-Aug-20 18:25 36.829391 -113.952778 204 24674ft 337kts
03-Aug-20 18:26 36.743112 -113.997711 203 21911ft 337kts
03-Aug-20 18:27 36.657559 -114.042160 203 19206ft 331kts
03-Aug-20 18:28 36.577167 -114.091188 226 16732ft 319kts
03-Aug-20 18:29 36.527117 -114.179779 236 14418ft 310kts
03-Aug-20 18:30 36.481987 -114.267856 236 12539ft 295kts
03-Aug-20 18:31 36.437104 -114.355313 236 11896ft 304kts
03-Aug-20 18:32 36.391560 -114.443872 236 11893ft 304kts
03-Aug-20 18:33 36.346014 -114.532377 236 11895ft 304kts
03-Aug-20 18:34 36.301015 -114.619649 236 11069ft 298kts
03-Aug-20 18:35 36.257011 -114.705100 235 9407ft 283kts
03-Aug-20 18:36 36.215852 -114.785813 235 7888ft 270kts
03-Aug-20 18:37 36.178315 -114.866077 255 6363ft 269kts
03-Aug-20 18:38 36.165387 -114.957133 257 5252ft 272kts
03-Aug-20 18:39 36.156036 -115.042545 260 4875ft 205kts
03-Aug-20 18:40 36.148826 -115.106144 256 4162ft 171kts
03-Aug-20 18:41 36.120286 -115.144825 201 2853ft 148kts
03-Aug-20 18:42 36.091504 -115.161134 205 2183ft 81kts
03-Aug-20 18:43 36.083708 -115.166753 235 2183ft 0kts
03-Aug-20 18:44 36.082819 -115.168517 293 2183ft 13kts

Navigation Log

Ident Type
Flight plan parsing failed, navigation log unavailable